createdAt,value
2017-02-05T00:00:36.821Z,309
2017-02-05T00:01:37.143Z,307
2017-02-05T00:02:37.209Z,308
2017-02-05T00:03:37.513Z,308
2017-02-05T00:04:37.780Z,313
2017-02-05T00:05:37.796Z,311
2017-02-05T00:06:38.022Z,310
2017-02-05T00:07:38.076Z,310
2017-02-05T00:08:38.345Z,310
2017-02-05T00:09:38.808Z,313
2017-02-05T00:10:39.117Z,311
2017-02-05T00:11:39.162Z,310
2017-02-05T00:12:39.264Z,310
2017-02-05T00:13:39.495Z,312
2017-02-05T00:14:39.545Z,310
2017-02-05T00:15:39.580Z,309
2017-02-05T00:16:39.924Z,308
2017-02-05T00:17:40.353Z,307
2017-02-05T00:18:40.567Z,305
2017-02-05T00:19:40.923Z,305
2017-02-05T00:20:41.060Z,305
2017-02-05T00:21:41.342Z,306
2017-02-05T00:22:41.498Z,305
2017-02-05T00:23:41.763Z,305
2017-02-05T00:24:42.018Z,307
2017-02-05T00:25:42.190Z,307
2017-02-05T00:26:42.445Z,306
2017-02-05T00:27:42.578Z,305
2017-02-05T00:28:43.580Z,306
2017-02-05T00:29:43.871Z,304
2017-02-05T00:30:44.036Z,309
2017-02-05T00:31:44.506Z,306
2017-02-05T00:32:44.637Z,305
2017-02-05T00:33:44.767Z,307
2017-02-05T00:34:45.007Z,305
2017-02-05T00:35:45.179Z,306
2017-02-05T00:36:45.424Z,307
2017-02-05T00:37:45.588Z,306
2017-02-05T00:38:45.576Z,306
2017-02-05T00:39:45.910Z,305
2017-02-05T00:40:46.162Z,181
2017-02-05T00:41:46.353Z,305
2017-02-05T00:42:46.580Z,303
2017-02-05T00:43:46.835Z,305
2017-02-05T00:44:46.970Z,304
2017-02-05T00:45:47.363Z,303
2017-02-05T00:46:47.370Z,303
2017-02-05T00:47:47.629Z,303
2017-02-05T00:48:47.822Z,304
2017-02-05T00:49:48.031Z,304
2017-02-05T00:50:48.280Z,302
2017-02-05T00:51:48.623Z,303
2017-02-05T00:52:49.013Z,303
2017-02-05T00:53:49.201Z,303
2017-02-05T00:54:49.398Z,303
2017-02-05T00:55:49.753Z,302
2017-02-05T00:56:49.770Z,301
2017-02-05T00:57:49.976Z,303
2017-02-05T00:58:50.401Z,300
2017-02-05T00:59:50.878Z,300
2017-02-05T01:00:51.004Z,301
2017-02-05T01:01:51.126Z,302
2017-02-05T01:02:51.350Z,300
2017-02-05T01:03:51.617Z,301
2017-02-05T01:04:53.826Z,302
2017-02-05T01:05:52.184Z,301
2017-02-05T01:06:52.326Z,302
2017-02-05T01:07:52.513Z,301
2017-02-05T01:08:52.738Z,301
2017-02-05T01:09:52.969Z,302
2017-02-05T01:10:53.046Z,300
2017-02-05T01:11:53.249Z,301
2017-02-05T01:12:53.402Z,301
2017-02-05T01:13:54.650Z,300
2017-02-05T01:14:54.972Z,300
2017-02-05T01:15:55.052Z,302
2017-02-05T01:16:55.321Z,302
2017-02-05T01:17:55.559Z,302
2017-02-05T01:18:57.271Z,303
2017-02-05T01:19:56.608Z,303
2017-02-05T01:20:56.775Z,306
2017-02-05T01:21:57.211Z,306
2017-02-05T01:22:57.138Z,307
2017-02-05T01:23:57.496Z,309
2017-02-05T01:24:57.802Z,309
2017-02-05T01:25:58.057Z,312
2017-02-05T01:26:58.837Z,313
2017-02-05T01:27:59.222Z,313
2017-02-05T01:28:59.631Z,312
2017-02-05T01:29:59.760Z,311
2017-02-05T01:31:00.024Z,309
2017-02-05T01:32:00.256Z,308
2017-02-05T01:33:00.490Z,307
2017-02-05T01:34:00.843Z,306
2017-02-05T01:35:01.341Z,306
2017-02-05T01:36:01.501Z,308
2017-02-05T01:37:01.653Z,305
2017-02-05T01:38:02.447Z,305
2017-02-05T01:39:02.013Z,304
2017-02-05T01:40:02.957Z,304
2017-02-05T01:41:02.554Z,305
2017-02-05T01:42:02.986Z,304
2017-02-05T01:43:03.051Z,303
2017-02-05T01:44:03.177Z,302
2017-02-05T01:45:03.369Z,302
2017-02-05T01:46:03.473Z,303
2017-02-05T01:47:03.623Z,301
2017-02-05T01:48:03.745Z,299
2017-02-05T01:49:03.834Z,300
2017-02-05T01:50:04.019Z,300
2017-02-05T01:51:04.127Z,300
2017-02-05T01:52:04.300Z,302
2017-02-05T01:53:04.458Z,300
2017-02-05T01:54:05.839Z,300
2017-02-05T01:55:05.982Z,299
2017-02-05T01:56:06.123Z,299
2017-02-05T01:57:06.221Z,298
2017-02-05T01:58:06.316Z,299
2017-02-05T01:59:06.477Z,298
2017-02-05T02:00:06.619Z,298
2017-02-05T02:01:06.769Z,298
2017-02-05T02:02:06.879Z,297
2017-02-05T02:03:07.009Z,296
2017-02-05T02:04:07.207Z,297
2017-02-05T02:05:07.390Z,297
2017-02-05T02:06:07.623Z,297
2017-02-05T02:07:08.037Z,296
2017-02-05T02:08:07.902Z,297
2017-02-05T02:09:07.996Z,296
2017-02-05T02:10:08.182Z,296
2017-02-05T02:11:08.403Z,296
2017-02-05T02:12:08.649Z,296
2017-02-05T02:13:08.895Z,295
2017-02-05T02:14:09.099Z,295
2017-02-05T02:15:09.284Z,294
2017-02-05T02:16:09.525Z,295
2017-02-05T02:17:09.817Z,295
2017-02-05T02:18:09.890Z,295
2017-02-05T02:19:10.022Z,295
2017-02-05T02:20:10.192Z,295
2017-02-05T02:21:10.592Z,296
2017-02-05T02:22:10.681Z,295
2017-02-05T02:23:10.806Z,294
2017-02-05T02:24:11.235Z,294
2017-02-05T02:25:11.416Z,294
2017-02-05T02:26:11.660Z,293
2017-02-05T02:27:11.915Z,293
2017-02-05T02:28:11.999Z,293
2017-02-05T02:29:12.277Z,294
2017-02-05T02:30:12.548Z,294
2017-02-05T02:31:13.534Z,293
2017-02-05T02:32:13.779Z,293
2017-02-05T02:33:13.934Z,293
2017-02-05T02:34:14.114Z,293
2017-02-05T02:35:14.193Z,293
2017-02-05T02:36:14.323Z,292
2017-02-05T02:37:14.450Z,292
2017-02-05T02:38:14.605Z,292
2017-02-05T02:39:14.758Z,292
2017-02-05T02:40:14.862Z,293
2017-02-05T02:41:15.033Z,293
2017-02-05T02:42:15.085Z,292
2017-02-05T02:43:15.175Z,292
2017-02-05T02:44:15.280Z,292
2017-02-05T02:45:18.444Z,292
2017-02-05T02:46:18.630Z,292
2017-02-05T02:47:18.755Z,291
2017-02-05T02:48:18.864Z,292
2017-02-05T02:49:18.985Z,292
2017-02-05T02:50:19.170Z,291
2017-02-05T02:51:19.314Z,291
2017-02-05T02:52:19.366Z,292
2017-02-05T02:53:19.494Z,291
2017-02-05T02:54:19.630Z,291
2017-02-05T02:55:19.739Z,291
2017-02-05T02:56:19.980Z,291
2017-02-05T02:57:20.089Z,291
2017-02-05T02:58:20.304Z,290
2017-02-05T02:59:20.471Z,290
2017-02-05T03:00:20.823Z,290
2017-02-05T03:01:20.955Z,290
2017-02-05T03:02:21.061Z,290
2017-02-05T03:03:21.181Z,290
2017-02-05T03:04:21.312Z,289
2017-02-05T03:05:21.491Z,289
2017-02-05T03:06:21.612Z,291
2017-02-05T03:07:22.509Z,289
2017-02-05T03:08:22.669Z,289
2017-02-05T03:09:22.723Z,288
2017-02-05T03:10:22.811Z,289
2017-02-05T03:11:22.976Z,289
2017-02-05T03:12:23.037Z,289
2017-02-05T03:13:23.109Z,288
2017-02-05T03:14:23.246Z,288
2017-02-05T03:15:23.438Z,288
2017-02-05T03:16:23.686Z,288
2017-02-05T03:17:23.867Z,287
2017-02-05T03:18:23.975Z,287
2017-02-05T03:19:24.152Z,287
2017-02-05T03:20:24.379Z,287
2017-02-05T03:21:24.421Z,286
2017-02-05T03:22:24.566Z,287
2017-02-05T03:23:24.700Z,286
2017-02-05T03:24:24.792Z,286
2017-02-05T03:25:24.968Z,287
2017-02-05T03:26:25.090Z,287
2017-02-05T03:27:25.180Z,287
2017-02-05T03:28:25.356Z,287
2017-02-05T03:29:25.580Z,287
2017-02-05T03:30:25.684Z,287
2017-02-05T03:31:25.771Z,287
2017-02-05T03:32:25.922Z,287
2017-02-05T03:33:26.064Z,287
2017-02-05T03:34:26.242Z,287
2017-02-05T03:35:26.356Z,287
2017-02-05T03:36:26.529Z,287
2017-02-05T03:37:26.650Z,287
2017-02-05T03:38:26.790Z,287
2017-02-05T03:39:26.921Z,287
2017-02-05T03:40:27.044Z,287
2017-02-05T03:41:27.192Z,287
2017-02-05T03:42:27.338Z,287
2017-02-05T03:43:27.487Z,287
2017-02-05T03:44:27.559Z,287
2017-02-05T03:45:27.719Z,287
2017-02-05T03:46:27.863Z,287
2017-02-05T03:47:27.982Z,287
2017-02-05T03:48:28.091Z,287
2017-02-05T03:49:28.246Z,287
2017-02-05T03:50:28.341Z,287
2017-02-05T03:51:28.494Z,287
2017-02-05T03:52:28.648Z,287
2017-02-05T03:53:28.693Z,287
2017-02-05T03:54:28.846Z,287
2017-02-05T03:55:28.908Z,287
2017-02-05T03:56:29.033Z,287
2017-02-05T03:57:29.133Z,287
2017-02-05T03:58:29.345Z,287
2017-02-05T03:59:29.497Z,286
2017-02-05T04:00:29.795Z,286
2017-02-05T04:01:29.927Z,287
2017-02-05T04:02:30.102Z,286
2017-02-05T04:03:30.251Z,287
2017-02-05T04:04:30.352Z,287
2017-02-05T04:05:30.572Z,287
2017-02-05T04:06:30.548Z,287
2017-02-05T04:07:30.658Z,287
2017-02-05T04:08:30.791Z,287
2017-02-05T04:09:30.858Z,287
2017-02-05T04:10:30.951Z,287
2017-02-05T04:11:31.061Z,286
2017-02-05T04:12:31.224Z,287
2017-02-05T04:13:31.339Z,287
2017-02-05T04:14:31.466Z,287
2017-02-05T04:15:31.674Z,287
2017-02-05T04:16:31.798Z,287
2017-02-05T04:17:31.930Z,287
2017-02-05T04:18:32.071Z,287
2017-02-05T04:19:32.168Z,287
2017-02-05T04:20:32.356Z,286
2017-02-05T04:21:32.492Z,287
2017-02-05T04:22:32.592Z,286
2017-02-05T04:23:32.744Z,286
2017-02-05T04:24:32.896Z,286
2017-02-05T04:25:33.031Z,286
2017-02-05T04:26:33.158Z,286
2017-02-05T04:27:33.317Z,286
2017-02-05T04:28:33.429Z,286
2017-02-05T04:29:33.618Z,285
2017-02-05T04:30:33.809Z,286
2017-02-05T04:31:33.979Z,285
2017-02-05T04:32:34.150Z,285
2017-02-05T04:33:34.337Z,285
2017-02-05T04:34:34.451Z,285
2017-02-05T04:35:34.567Z,285
2017-02-05T04:36:34.662Z,285
2017-02-05T04:37:34.846Z,285
2017-02-05T04:38:34.974Z,285
2017-02-05T04:39:35.083Z,284
2017-02-05T04:40:35.119Z,284
2017-02-05T04:41:35.253Z,284
2017-02-05T04:42:35.440Z,284
2017-02-05T04:43:35.607Z,284
2017-02-05T04:44:35.722Z,284
2017-02-05T04:45:35.922Z,284
2017-02-05T04:46:36.090Z,284
2017-02-05T04:47:36.204Z,284
2017-02-05T04:48:36.370Z,285
2017-02-05T04:49:36.459Z,285
2017-02-05T04:50:36.509Z,284
2017-02-05T04:51:36.624Z,285
2017-02-05T04:52:36.789Z,285
2017-02-05T04:53:36.897Z,285
2017-02-05T04:54:36.998Z,284
2017-02-05T04:55:37.070Z,284
2017-02-05T04:56:37.166Z,284
2017-02-05T04:57:37.251Z,285
2017-02-05T04:58:37.370Z,285
2017-02-05T04:59:37.480Z,285
2017-02-05T05:00:37.639Z,286
2017-02-05T05:01:37.766Z,285
2017-02-05T05:02:37.957Z,285
2017-02-05T05:03:38.146Z,286
2017-02-05T05:04:38.193Z,286
2017-02-05T05:05:38.319Z,286
2017-02-05T05:06:38.421Z,286
2017-02-05T05:07:38.538Z,285
2017-02-05T05:08:38.640Z,286
2017-02-05T05:09:38.754Z,285
2017-02-05T05:10:38.813Z,285
2017-02-05T05:11:38.995Z,285
2017-02-05T05:12:39.181Z,286
2017-02-05T05:13:39.281Z,286
2017-02-05T05:14:39.409Z,285
2017-02-05T05:15:39.509Z,285
2017-02-05T05:16:39.670Z,286
2017-02-05T05:17:39.986Z,286
2017-02-05T05:18:40.298Z,286
2017-02-05T05:19:40.415Z,286
2017-02-05T05:20:40.659Z,287
2017-02-05T05:21:40.786Z,286
2017-02-05T05:22:40.923Z,287
2017-02-05T05:23:41.062Z,287
2017-02-05T05:24:41.165Z,287
2017-02-05T05:25:41.323Z,287
2017-02-05T05:26:41.560Z,288
2017-02-05T05:27:41.648Z,288
2017-02-05T05:28:41.840Z,288
2017-02-05T05:29:42.011Z,288
2017-02-05T05:30:42.161Z,289
2017-02-05T05:31:42.309Z,289
2017-02-05T05:32:42.482Z,289
2017-02-05T05:33:42.628Z,290
2017-02-05T05:34:42.739Z,290
2017-02-05T05:35:42.800Z,290
2017-02-05T05:36:42.918Z,290
2017-02-05T05:37:42.959Z,291
2017-02-05T05:38:43.070Z,291
2017-02-05T05:39:43.200Z,291
2017-02-05T05:40:43.328Z,292
2017-02-05T05:41:43.447Z,291
2017-02-05T05:42:43.607Z,291
2017-02-05T05:43:43.725Z,291
2017-02-05T05:44:43.886Z,291
2017-02-05T05:45:44.055Z,292
2017-02-05T05:46:44.128Z,291
2017-02-05T05:47:44.204Z,291
2017-02-05T05:48:44.395Z,292
2017-02-05T05:49:44.568Z,292
2017-02-05T05:50:44.749Z,292
2017-02-05T05:51:44.846Z,292
2017-02-05T05:52:44.921Z,292
2017-02-05T05:53:45.053Z,293
2017-02-05T05:54:45.215Z,292
2017-02-05T05:55:45.322Z,292
2017-02-05T05:56:46.337Z,292
2017-02-05T05:57:47.823Z,292
2017-02-05T05:58:49.326Z,292
2017-02-05T05:59:49.337Z,293
2017-02-05T06:00:48.686Z,292
2017-02-05T06:01:48.792Z,292
2017-02-05T06:02:48.895Z,292
2017-02-05T06:03:48.981Z,292
2017-02-05T06:04:49.149Z,293
2017-02-05T06:05:49.315Z,292
2017-02-05T06:06:49.464Z,293
2017-02-05T06:07:49.688Z,292
2017-02-05T06:08:49.766Z,292
2017-02-05T06:09:49.871Z,292
2017-02-05T06:10:49.956Z,292
2017-02-05T06:11:50.116Z,292
2017-02-05T06:12:50.401Z,292
2017-02-05T06:13:50.487Z,292
2017-02-05T06:14:50.642Z,292
2017-02-05T06:15:50.730Z,292
2017-02-05T06:16:50.864Z,292
2017-02-05T06:17:51.058Z,292
2017-02-05T06:18:51.093Z,292
2017-02-05T06:19:51.307Z,293
2017-02-05T06:20:51.425Z,293
2017-02-05T06:21:51.571Z,293
2017-02-05T06:22:51.827Z,292
2017-02-05T06:23:51.996Z,292
2017-02-05T06:24:52.082Z,292
2017-02-05T06:25:52.225Z,292
2017-02-05T06:26:52.390Z,292
2017-02-05T06:27:52.531Z,292
2017-02-05T06:28:52.642Z,293
2017-02-05T06:29:52.808Z,292
2017-02-05T06:30:52.955Z,293
2017-02-05T06:31:53.041Z,293
2017-02-05T06:32:53.208Z,293
2017-02-05T06:33:53.337Z,293
2017-02-05T06:34:53.507Z,292
2017-02-05T06:35:53.619Z,292
2017-02-05T06:36:53.801Z,292
2017-02-05T06:37:54.078Z,292
2017-02-05T06:38:54.067Z,293
2017-02-05T06:39:54.174Z,293
2017-02-05T06:40:54.308Z,293
2017-02-05T06:41:54.397Z,293
2017-02-05T06:42:54.509Z,294
2017-02-05T06:43:54.658Z,293
2017-02-05T06:44:54.829Z,293
2017-02-05T06:45:54.938Z,292
2017-02-05T06:46:55.040Z,293
2017-02-05T06:47:55.231Z,292
2017-02-05T06:48:55.316Z,293
2017-02-05T06:49:55.414Z,293
2017-02-05T06:50:55.518Z,292
2017-02-05T06:51:55.842Z,293
2017-02-05T06:52:56.017Z,293
2017-02-05T06:53:56.090Z,293
2017-02-05T06:54:56.174Z,293
2017-02-05T06:55:56.290Z,293
2017-02-05T06:56:56.476Z,293
2017-02-05T06:57:56.571Z,293
2017-02-05T06:58:56.787Z,293
2017-02-05T06:59:56.920Z,293
2017-02-05T07:00:57.058Z,293
2017-02-05T07:01:57.125Z,293
2017-02-05T07:02:57.235Z,293
2017-02-05T07:03:57.411Z,293
2017-02-05T07:04:57.523Z,293
2017-02-05T07:05:57.648Z,293
2017-02-05T07:06:57.719Z,293
2017-02-05T07:07:57.946Z,293
2017-02-05T07:08:58.127Z,294
2017-02-05T07:09:58.145Z,293
2017-02-05T07:10:58.385Z,294
2017-02-05T07:11:58.410Z,294
2017-02-05T07:12:58.530Z,293
2017-02-05T07:13:58.665Z,293
2017-02-05T07:14:58.771Z,294
2017-02-05T07:15:58.970Z,293
2017-02-05T07:16:59.145Z,294
2017-02-05T07:17:59.242Z,294
2017-02-05T07:18:59.394Z,293
2017-02-05T07:19:59.591Z,293
2017-02-05T07:20:59.720Z,293
2017-02-05T07:21:59.819Z,293
2017-02-05T07:22:59.936Z,294
2017-02-05T07:24:00.050Z,294
2017-02-05T07:25:00.129Z,293
2017-02-05T07:26:00.259Z,293
2017-02-05T07:27:00.383Z,293
2017-02-05T07:28:00.512Z,293
2017-02-05T07:29:00.605Z,293
2017-02-05T07:30:00.810Z,293
2017-02-05T07:31:02.043Z,294
2017-02-05T07:32:02.168Z,294
2017-02-05T07:33:02.311Z,293
2017-02-05T07:34:02.377Z,293
2017-02-05T07:35:02.604Z,293
2017-02-05T07:36:02.671Z,294
2017-02-05T07:37:02.815Z,294
2017-02-05T07:38:02.905Z,294
2017-02-05T07:39:02.999Z,293
2017-02-05T07:40:03.145Z,294
2017-02-05T07:41:03.359Z,294
2017-02-05T07:42:03.488Z,294
2017-02-05T07:43:03.630Z,294
2017-02-05T07:44:03.800Z,294
2017-02-05T07:45:04.067Z,294
2017-02-05T07:46:04.202Z,294
2017-02-05T07:47:04.320Z,294
2017-02-05T07:48:04.583Z,294
2017-02-05T07:49:04.832Z,294
2017-02-05T07:50:04.873Z,294
2017-02-05T07:51:05.039Z,294
2017-02-05T07:52:05.214Z,295
2017-02-05T07:53:05.430Z,295
2017-02-05T07:54:05.478Z,295
2017-02-05T07:55:05.583Z,294
2017-02-05T07:56:05.757Z,294
2017-02-05T07:57:05.844Z,295
2017-02-05T07:58:05.941Z,294
2017-02-05T07:59:06.111Z,294
2017-02-05T08:00:06.362Z,294
2017-02-05T08:01:06.516Z,294
2017-02-05T08:02:06.675Z,294
2017-02-05T08:03:06.853Z,294
2017-02-05T08:04:06.974Z,294
2017-02-05T08:05:07.110Z,294
2017-02-05T08:06:07.256Z,294
2017-02-05T08:07:07.453Z,295
2017-02-05T08:08:07.556Z,295
2017-02-05T08:09:07.637Z,293
2017-02-05T08:10:07.868Z,294
2017-02-05T08:11:07.880Z,294
2017-02-05T08:12:08.088Z,294
2017-02-05T08:13:08.268Z,293
2017-02-05T08:14:08.459Z,292
2017-02-05T08:15:08.624Z,291
2017-02-05T08:16:08.724Z,290
2017-02-05T08:17:08.827Z,290
2017-02-05T08:18:09.175Z,289
2017-02-05T08:19:09.182Z,288
2017-02-05T08:20:09.855Z,287
2017-02-05T08:21:09.585Z,286
2017-02-05T08:22:09.694Z,285
2017-02-05T08:23:09.814Z,285
2017-02-05T08:24:10.059Z,284
2017-02-05T08:26:37.453Z,282
2017-02-05T08:27:37.690Z,282
2017-02-05T08:28:37.822Z,282
2017-02-05T08:29:37.952Z,282
2017-02-05T08:30:38.116Z,282
2017-02-05T08:31:38.301Z,282
2017-02-05T08:32:38.403Z,282
2017-02-05T08:33:38.549Z,282
2017-02-05T08:34:38.691Z,282
2017-02-05T08:35:38.799Z,282
2017-02-05T08:36:38.964Z,282
2017-02-05T08:37:39.084Z,282
2017-02-05T08:38:39.185Z,283
2017-02-05T08:39:39.291Z,282
2017-02-05T08:40:39.379Z,282
2017-02-05T08:41:39.556Z,282
2017-02-05T08:42:39.765Z,282
2017-02-05T08:43:39.875Z,282
2017-02-05T08:44:39.987Z,283
2017-02-05T08:45:40.047Z,283
2017-02-05T08:46:40.175Z,283
2017-02-05T08:47:40.390Z,282
2017-02-05T08:48:40.495Z,282
2017-02-05T08:49:40.753Z,282
2017-02-05T08:50:40.950Z,283
2017-02-05T08:51:41.041Z,282
2017-02-05T08:52:41.240Z,282
2017-02-05T08:53:41.501Z,282
2017-02-05T08:54:41.699Z,282
2017-02-05T08:55:41.735Z,282
2017-02-05T08:56:41.839Z,282
2017-02-05T08:57:42.176Z,282
2017-02-05T08:58:42.478Z,282
2017-02-05T08:59:42.645Z,282
2017-02-05T09:00:42.796Z,281
2017-02-05T09:01:42.952Z,281
2017-02-05T09:02:43.130Z,281
2017-02-05T09:03:43.554Z,281
2017-02-05T09:04:43.743Z,281
2017-02-05T09:05:43.824Z,281
2017-02-05T09:06:43.992Z,281
2017-02-05T09:07:44.300Z,281
2017-02-05T09:08:44.696Z,281
2017-02-05T09:09:44.651Z,281
2017-02-05T09:10:44.806Z,281
2017-02-05T09:11:44.927Z,281
2017-02-05T09:12:45.050Z,280
2017-02-05T09:13:45.256Z,280
2017-02-05T09:14:45.448Z,280
2017-02-05T09:15:45.679Z,280
2017-02-05T09:16:45.842Z,280
2017-02-05T09:17:46.125Z,280
2017-02-05T09:18:46.332Z,279
2017-02-05T09:19:46.650Z,280
2017-02-05T09:20:46.788Z,279
2017-02-05T09:21:46.922Z,279
2017-02-05T09:22:47.205Z,280
2017-02-05T09:23:47.368Z,280
2017-02-05T09:24:47.680Z,279
2017-02-05T09:25:48.944Z,280
2017-02-05T09:26:49.007Z,280
2017-02-05T09:27:50.267Z,279
2017-02-05T09:28:49.368Z,280
2017-02-05T09:29:49.529Z,280
2017-02-05T09:30:49.843Z,279
2017-02-05T09:31:49.941Z,280
2017-02-05T09:32:50.052Z,280
2017-02-05T09:33:50.169Z,280
2017-02-05T09:34:50.335Z,279
2017-02-05T09:35:50.695Z,280
2017-02-05T09:36:50.927Z,280
2017-02-05T09:37:51.066Z,279
2017-02-05T09:38:51.475Z,279
2017-02-05T09:39:51.479Z,279
2017-02-05T09:40:51.644Z,280
2017-02-05T09:41:51.730Z,279
2017-02-05T09:42:51.908Z,279
2017-02-05T09:43:52.071Z,279
2017-02-05T09:44:52.201Z,280
2017-02-05T09:45:52.375Z,279
2017-02-05T09:46:52.529Z,279
2017-02-05T09:47:52.672Z,280
2017-02-05T09:48:52.756Z,279
2017-02-05T09:49:53.081Z,279
2017-02-05T09:50:53.255Z,280
2017-02-05T09:51:53.437Z,279
2017-02-05T09:52:53.576Z,280
2017-02-05T09:53:53.753Z,279
2017-02-05T09:54:54.024Z,279
2017-02-05T09:55:54.213Z,280
2017-02-05T09:56:54.318Z,279
2017-02-05T09:57:54.444Z,279
2017-02-05T09:58:54.624Z,279
2017-02-05T09:59:54.825Z,279
2017-02-05T10:00:54.949Z,279
2017-02-05T10:01:55.108Z,279
2017-02-05T10:02:55.223Z,279
2017-02-05T10:03:55.597Z,279
2017-02-05T10:04:55.780Z,279
2017-02-05T10:05:56.156Z,280
2017-02-05T10:06:56.685Z,279
2017-02-05T10:07:56.734Z,279
2017-02-05T10:08:57.054Z,279
2017-02-05T10:09:57.816Z,279
2017-02-05T10:10:58.093Z,279
2017-02-05T10:11:58.275Z,279
2017-02-05T10:12:58.456Z,279
2017-02-05T10:13:58.590Z,279
2017-02-05T10:14:58.718Z,279
2017-02-05T10:15:59.035Z,279
2017-02-05T10:16:59.229Z,279
2017-02-05T10:17:59.398Z,279
2017-02-05T10:18:59.576Z,279
2017-02-05T10:20:00.389Z,279
2017-02-05T10:21:00.538Z,279
2017-02-05T10:22:00.774Z,279
2017-02-05T10:23:01.454Z,279
2017-02-05T10:24:01.551Z,279
2017-02-05T10:25:01.717Z,279
2017-02-05T10:26:01.891Z,279
2017-02-05T10:27:02.114Z,279
2017-02-05T10:28:02.201Z,278
2017-02-05T10:29:02.670Z,279
2017-02-05T10:30:02.962Z,279
2017-02-05T10:31:03.652Z,278
2017-02-05T10:32:03.639Z,279
2017-02-05T10:33:03.796Z,279
2017-02-05T10:34:03.951Z,279
2017-02-05T10:35:04.301Z,279
2017-02-05T10:36:04.441Z,278
2017-02-05T10:37:04.582Z,279
2017-02-05T10:38:04.758Z,279
2017-02-05T10:39:04.935Z,279
2017-02-05T10:40:05.181Z,279
2017-02-05T10:41:05.286Z,279
2017-02-05T10:42:05.420Z,279
2017-02-05T10:43:05.568Z,279
2017-02-05T10:44:05.737Z,279
2017-02-05T10:45:05.980Z,279
2017-02-05T10:46:05.964Z,279
2017-02-05T10:47:06.231Z,279
2017-02-05T10:48:08.189Z,279
2017-02-05T10:49:09.287Z,279
2017-02-05T10:50:09.325Z,279
2017-02-05T10:51:09.468Z,279
2017-02-05T10:52:10.528Z,279
2017-02-05T10:53:10.893Z,279
2017-02-05T10:54:11.192Z,279
2017-02-05T10:55:11.327Z,279
2017-02-05T10:56:11.847Z,279
2017-02-05T10:57:11.989Z,279
2017-02-05T10:58:12.197Z,279
2017-02-05T10:59:12.323Z,279
2017-02-05T11:00:12.606Z,279
2017-02-05T11:01:12.914Z,279
2017-02-05T11:02:13.336Z,279
2017-02-05T11:03:13.716Z,279
2017-02-05T11:04:14.842Z,279
2017-02-05T11:05:15.163Z,279
2017-02-05T11:06:15.311Z,279
2017-02-05T11:07:15.615Z,279
2017-02-05T11:08:15.744Z,279
2017-02-05T11:09:15.966Z,279
2017-02-05T11:10:16.306Z,279
2017-02-05T11:11:16.564Z,279
2017-02-05T11:12:16.737Z,279
2017-02-05T11:13:16.947Z,279
2017-02-05T11:14:17.028Z,279
2017-02-05T11:15:17.276Z,279
2017-02-05T11:16:17.419Z,279
2017-02-05T11:17:17.686Z,279
2017-02-05T11:18:17.826Z,279
2017-02-05T11:19:17.886Z,279
2017-02-05T11:20:18.134Z,279
2017-02-05T11:21:18.182Z,279
2017-02-05T11:22:18.433Z,279
2017-02-05T11:23:18.632Z,279
2017-02-05T11:24:18.803Z,279
2017-02-05T11:25:19.125Z,279
2017-02-05T11:26:20.157Z,279
2017-02-05T11:27:19.534Z,279
2017-02-05T11:28:19.567Z,279
2017-02-05T11:29:19.696Z,279
2017-02-05T11:30:19.964Z,279
2017-02-05T11:31:20.257Z,279
2017-02-05T11:32:20.400Z,279
2017-02-05T11:33:20.702Z,279
2017-02-05T11:34:20.842Z,279
2017-02-05T11:35:21.083Z,278
2017-02-05T11:36:21.211Z,279
2017-02-05T11:37:21.512Z,279
2017-02-05T11:38:21.585Z,279
2017-02-05T11:39:21.901Z,279
2017-02-05T11:40:22.050Z,279
2017-02-05T11:41:22.214Z,278
2017-02-05T11:42:22.402Z,279
2017-02-05T11:43:22.519Z,279
2017-02-05T11:44:22.681Z,278
2017-02-05T11:45:22.884Z,278
2017-02-05T11:46:23.122Z,278
2017-02-05T11:47:23.188Z,279
2017-02-05T11:48:23.401Z,279
2017-02-05T11:49:23.632Z,278
2017-02-05T11:50:23.695Z,279
2017-02-05T11:51:24.130Z,279
2017-02-05T11:52:24.105Z,279
2017-02-05T11:53:24.392Z,278
2017-02-05T11:54:24.758Z,279
2017-02-05T11:55:24.861Z,279
2017-02-05T11:56:25.068Z,279
2017-02-05T11:57:25.546Z,279
2017-02-05T11:58:25.385Z,279
2017-02-05T11:59:25.586Z,278
2017-02-05T12:00:25.726Z,278
2017-02-05T12:01:25.855Z,278
2017-02-05T12:02:26.085Z,278
2017-02-05T12:03:26.212Z,278
2017-02-05T12:04:26.474Z,256
2017-02-05T12:05:26.594Z,273
2017-02-05T12:06:26.698Z,273
2017-02-05T12:07:26.962Z,273
2017-02-05T12:08:27.087Z,272
2017-02-05T12:09:27.268Z,272
2017-02-05T12:10:27.597Z,270
2017-02-05T12:11:27.776Z,273
2017-02-05T12:12:27.845Z,273
2017-02-05T12:13:27.990Z,276
2017-02-05T12:14:28.159Z,276
2017-02-05T12:15:28.270Z,276
2017-02-05T12:16:28.499Z,275
2017-02-05T12:17:28.766Z,275
2017-02-05T12:18:29.026Z,274
2017-02-05T12:19:29.059Z,274
2017-02-05T12:20:29.195Z,274
2017-02-05T12:21:29.366Z,275
2017-02-05T12:22:29.645Z,275
2017-02-05T12:23:29.879Z,274
2017-02-05T12:24:29.899Z,275
2017-02-05T12:25:30.158Z,275
2017-02-05T12:26:30.804Z,275
2017-02-05T12:27:30.957Z,267
2017-02-05T12:28:31.359Z,270
2017-02-05T12:29:31.532Z,270
2017-02-05T12:30:31.777Z,269
2017-02-05T12:31:31.947Z,270
2017-02-05T12:32:32.756Z,271
2017-02-05T12:33:32.273Z,270
2017-02-05T12:34:32.587Z,270
2017-02-05T12:35:32.675Z,270
